Boynton Beach, FL (33435)

5:05 PM EST on February 01, 2015 (GMT -0500)
APRSWXNET West Palm Beach FL US | Change Station
CLOSE
Current Station
Personal Weather Station
Location: Boynton Beach, FL
Elevation: 32 ft
Nearby Weather Stations
Active Advisory: Coastal Hazard Statement

Elev 32 ft 26.53 °N, 80.07 °W | Updated 35 minutes ago

Mostly Cloudy
Mostly Cloudy
73 °F
Feels Like 77 °F
N
3
Wind Variable Wind from South
Gusts 7.0 mph

Today
High -- | Low -- °F
--% Chance of Precip.
Yesterday
High -- | Low -- °F
Precip. -- in
7:05 AM 6:02 PM
Waxing Gibbous, 96% visible
Pressure 30.12 in
Visibility 10.0 miles
Clouds Scattered Clouds 3500 ft
Scattered Clouds 6500 ft
Heat Index 77 °F
Dew Point 56 °F
Humidity 55%
Rainfall 0.00 in
Snow Depth Not available.
UV 2 out of 12
Pollen 8.30 out of 12
Air Quality Not available.
Flu Activity Not available.
METAR KPBI 012053Z 13012KT 10SM SCT035 SCT065 24/12 A3012 RMK AO2 SLP198 T02390122 56021

More Conditions Fewer Conditions

Pressure 30.12 in
Visibility 10.0 miles
Clouds Scattered Clouds 3500 ft
Scattered Clouds 6500 ft
Heat Index 77 °F
Dew Point 56 °F
Humidity 55%
Rainfall 0.00 in
Snow Depth Not available.
UV 2 out of 12
Pollen 8.30 out of 12
Air Quality Not available.
Flu Activity Not available.
METAR KPBI 012053Z 13012KT 10SM SCT035 SCT065 24/12 A3012 RMK AO2 SLP198 T02390122 56021

More Conditions Fewer Conditions

10-Day Weather Forecast

Almanac

Astronomy

Feb. 01, 2015 Rise Set
Actual Time
Civil Twilight
Nautical Twilight
Astronomical Twilight
Moon
Length of Visible Light
Length of Day
Tomorrow will be .
, % of the Moon is Illuminated

Today's Extremes

State Highs State Lows

Community

WunderPhotos

Upload Photos

1,792,561 photos uploaded!

WunderBlogs® & News

Nearby

Air Quality

  Air Quality AQ Index Pollutant
Not available.

Snow Depth

Station Depth Elevation

Earthquake Activity

City Distance Mag. Time & Date
Minimum magnitude displayed is 2.5.

Coastal Water Temperatures

Place Temperature

Nearby Weather Stations